Time;durP1;ratioP1;P1;durP2;ratioP2;P2;SDS_P1;SDS_P2;PMS_P1;PMS_P2;Temp;Humidity;BMP_temperature;BMP_pressure;BME280_temperature;BME280_humidity;BME280_pressure;Samples;Min_cycle;Max_cycle;Signal;HPM_P1;HPM_P2
2023/01/06 00:01:18;;;;;;;0.85;0.85;;;;;;;;;;5032086;28;20028;-72
2023/01/06 00:03:48;;;;;;;0.10;0.10;;;;;;;;;;5030488;28;20369;-72
2023/01/06 00:06:13;;;;;;;;;;;;;;;;;;5030530;28;20025;-72
2023/01/06 00:08:39;;;;;;;0.20;0.20;;;;;;;;;;5012320;28;19909;-72
2023/01/06 00:11:08;;;;;;;0.20;0.20;;;;;;;;;;5031573;28;20372;-72
2023/01/06 00:13:34;;;;;;;;;;;;;;;;;;5032016;28;20376;-73
2023/01/06 00:16:11;;;;;;;0.10;0.10;;;;;;;;;;5031340;28;19905;-73
2023/01/06 00:18:37;;;;;;;3.00;1.27;;;;;;;;;;5033218;28;20067;-72
2023/01/06 00:21:03;;;;;;;0.10;0.10;;;;;;;;;;5035309;28;20420;-72
2023/01/06 00:23:28;;;;;;;1.13;1.02;;;;;;;;;;5034640;28;20020;-72
2023/01/06 00:25:54;;;;;;;0.30;0.30;;;;;;;;;;5035338;28;20565;-73
2023/01/06 00:28:19;;;;;;;0.20;0.20;;;;;;;;;;5035161;28;20018;-72
2023/01/06 00:30:45;;;;;;;0.90;0.90;;;;;;;;;;5034421;28;20365;-73
2023/01/06 00:33:11;;;;;;;0.10;0.10;;;;;;;;;;5034700;28;20013;-72
2023/01/06 00:35:38;;;;;;;0.20;0.20;;;;;;;;;;5035227;28;20373;-73
2023/01/06 00:38:03;;;;;;;0.75;0.75;;;;;;;;;;5017161;28;20060;-74
2023/01/06 00:40:30;;;;;;;0.20;0.20;;;;;;;;;;5034043;28;20516;-72
2023/01/06 00:42:55;;;;;;;0.30;0.30;;;;;;;;;;5034711;28;20053;-74
2023/01/06 00:45:21;;;;;;;1.10;1.10;;;;;;;;;;5034800;28;20029;-74
2023/01/06 00:47:46;;;;;;;0.20;0.20;;;;;;;;;;5035087;28;20025;-73
2023/01/06 00:50:12;;;;;;;0.57;0.57;;;;;;;;;;5033494;28;20045;-74
2023/01/06 00:52:38;;;;;;;1.15;1.15;;;;;;;;;;5016580;28;20025;-72
2023/01/06 00:55:04;;;;;;;2.35;2.15;;;;;;;;;;5034707;28;20009;-72
2023/01/06 00:57:29;;;;;;;0.13;0.13;;;;;;;;;;5016880;28;20029;-72
2023/01/06 00:59:54;;;;;;;6.45;3.28;;;;;;;;;;5016608;28;20068;-73
2023/01/06 01:02:20;;;;;;;0.55;0.55;;;;;;;;;;5034971;28;20013;-73
2023/01/06 01:04:45;;;;;;;1.80;1.70;;;;;;;;;;5034854;28;20029;-72
2023/01/06 01:07:11;;;;;;;0.32;0.32;;;;;;;;;;5034163;28;20473;-73
2023/01/06 01:09:38;;;;;;;3.70;3.40;;;;;;;;;;5000109;28;20041;-73
2023/01/06 01:12:10;;;;;;;1.00;1.00;;;;;;;;;;5034348;28;20029;-72
2023/01/06 01:14:43;;;;;;;1.42;1.33;;;;;;;;;;5034355;28;20037;-72
2023/01/06 01:17:10;;;;;;;0.47;0.47;;;;;;;;;;5034672;28;20345;-73
2023/01/06 01:19:35;;;;;;;2.05;1.98;;;;;;;;;;4999779;28;20025;-73
2023/01/06 01:22:01;;;;;;;0.10;0.10;;;;;;;;;;5016396;28;20075;-72
2023/01/06 01:24:26;;;;;;;0.43;0.43;;;;;;;;;;5033586;28;20033;-72
2023/01/06 01:26:52;;;;;;;2.40;2.30;;;;;;;;;;5033883;28;20079;-73
2023/01/06 01:29:18;;;;;;;0.20;0.20;;;;;;;;;;5016533;28;20529;-72
2023/01/06 01:31:43;;;;;;;0.70;0.70;;;;;;;;;;5034090;28;20033;-74
2023/01/06 01:34:10;;;;;;;0.52;0.52;;;;;;;;;;5033959;28;20412;-72
2023/01/06 01:36:35;;;;;;;0.10;0.10;;;;;;;;;;5032882;28;20028;-73
2023/01/06 01:39:01;;;;;;;1.55;1.50;;;;;;;;;;5022277;28;20549;-72
2023/01/06 01:41:26;;;;;;;0.10;0.10;;;;;;;;;;5012762;28;20030;-72
2023/01/06 01:43:56;;;;;;;4.10;2.80;;;;;;;;;;5014106;28;20038;-73
2023/01/06 01:46:25;;;;;;;1.00;1.00;;;;;;;;;;5014247;28;20026;-72
2023/01/06 01:48:51;;;;;;;0.10;0.10;;;;;;;;;;5012439;28;20458;-72
2023/01/06 01:51:18;;;;;;;1.75;1.65;;;;;;;;;;5012405;28;20034;-72
2023/01/06 01:53:47;;;;;;;0.73;0.73;;;;;;;;;;5014025;28;20018;-73
2023/01/06 01:56:14;;;;;;;0.20;0.20;;;;;;;;;;5013947;28;20026;-74
2023/01/06 01:59:12;;;;;;;0.65;0.65;;;;;;;;;;5016003;28;20057;-73
2023/01/06 02:01:37;;;;;;;0.30;0.30;;;;;;;;;;4979622;28;20083;-73
2023/01/06 02:04:03;;;;;;;0.20;0.20;;;;;;;;;;5033706;28;20029;-73
2023/01/06 02:06:29;;;;;;;0.13;0.13;;;;;;;;;;5033667;28;20026;-74
2023/01/06 02:09:03;;;;;;;2.42;2.13;;;;;;;;;;5015250;28;20029;-72
2023/01/06 02:11:30;;;;;;;0.63;0.63;;;;;;;;;;5033733;28;20032;-71
2023/01/06 02:14:00;;;;;;;1.27;1.23;;;;;;;;;;5033657;28;20404;-71
2023/01/06 02:16:25;;;;;;;;;;;;;;;;;;5016257;28;20021;-75
2023/01/06 02:18:54;;;;;;;0.30;0.30;;;;;;;;;;5015777;28;20264;-75
2023/01/06 02:21:26;;;;;;;0.43;0.43;;;;;;;;;;5015475;28;20025;-74
2023/01/06 02:24:10;;;;;;;0.40;0.40;;;;;;;;;;5033629;28;20106;-74
2023/01/06 02:26:42;;;;;;;2.05;1.95;;;;;;;;;;5033345;28;20115;-74
2023/01/06 02:29:18;;;;;;;1.00;1.00;;;;;;;;;;5015758;28;20540;-74
2023/01/06 02:31:54;;;;;;;1.55;1.45;;;;;;;;;;5015281;28;20376;-74
2023/01/06 02:34:25;;;;;;;2.45;2.30;;;;;;;;;;5015878;28;20061;-72
2023/01/06 02:37:09;;;;;;;0.10;0.10;;;;;;;;;;5015612;28;20495;-72
2023/01/06 02:39:41;;;;;;;0.93;0.93;;;;;;;;;;5015289;28;20052;-72
2023/01/06 02:42:26;;;;;;;1.73;1.60;;;;;;;;;;5015394;28;20376;-72
2023/01/06 02:45:03;;;;;;;0.30;0.30;;;;;;;;;;5033369;28;20104;-72
2023/01/06 02:47:33;;;;;;;0.73;0.73;;;;;;;;;;5033651;28;20026;-72
2023/01/06 02:50:08;;;;;;;0.17;0.17;;;;;;;;;;5015691;28;20407;-73
2023/01/06 02:52:54;;;;;;;0.22;0.22;;;;;;;;;;5015245;28;20029;-72
2023/01/06 02:55:22;;;;;;;0.52;0.52;;;;;;;;;;5015617;28;20033;-71
2023/01/06 02:58:04;;;;;;;0.32;0.32;;;;;;;;;;5015338;28;20536;-72
2023/01/06 03:00:35;;;;;;;0.20;0.20;;;;;;;;;;5015500;28;20021;-72
2023/01/06 03:03:03;;;;;;;2.75;2.60;;;;;;;;;;5015048;28;20112;-72
2023/01/06 03:05:31;;;;;;;0.20;0.20;;;;;;;;;;5032967;28;20021;-72
2023/01/06 03:07:59;;;;;;;0.38;0.38;;;;;;;;;;5033170;28;20021;-72
2023/01/06 03:10:25;;;;;;;3.92;0.95;;;;;;;;;;5019106;28;20452;-72
2023/01/06 03:13:06;;;;;;;0.10;0.10;;;;;;;;;;5034873;28;20124;-72
2023/01/06 03:15:32;;;;;;;0.68;0.68;;;;;;;;;;5018483;28;20017;-72
2023/01/06 03:17:58;;;;;;;0.20;0.20;;;;;;;;;;5018552;28;20029;-74
2023/01/06 03:20:23;;;;;;;0.20;0.20;;;;;;;;;;5035194;28;20020;-72
2023/01/06 03:22:48;;;;;;;0.90;0.90;;;;;;;;;;5056668;28;20116;-72
2023/01/06 03:25:14;;;;;;;0.10;0.10;;;;;;;;;;5022278;28;20064;-72
2023/01/06 03:27:41;;;;;;;2.38;2.28;;;;;;;;;;5038646;28;20540;-72
2023/01/06 03:30:08;;;;;;;1.38;1.27;;;;;;;;;;5038351;28;20033;-72
2023/01/06 03:32:54;;;;;;;0.85;0.85;;;;;;;;;;5022436;28;20067;-73
2023/01/06 03:35:39;;;;;;;0.20;0.20;;;;;;;;;;5056434;28;20025;-72
2023/01/06 03:38:04;;;;;;;0.20;0.20;;;;;;;;;;5038246;28;20045;-72
2023/01/06 03:40:42;;;;;;;1.98;1.88;;;;;;;;;;5038381;28;20128;-71
2023/01/06 03:43:14;;;;;;;0.20;0.20;;;;;;;;;;5038292;28;20423;-71
2023/01/06 03:46:06;;;;;;;0.75;0.75;;;;;;;;;;5038357;28;20033;-72
2023/01/06 03:48:39;;;;;;;0.28;0.28;;;;;;;;;;5038101;28;20021;-72
2023/01/06 03:51:13;;;;;;;0.30;0.30;;;;;;;;;;5037952;28;20033;-72
2023/01/06 03:53:49;;;;;;;0.85;0.85;;;;;;;;;;5037998;28;20112;-72
2023/01/06 03:56:19;;;;;;;1.77;1.67;;;;;;;;;;5038142;28;20056;-72
2023/01/06 03:58:45;;;;;;;;;;;;;;;;;;5056316;28;20052;-72
2023/01/06 04:01:12;;;;;;;0.10;0.10;;;;;;;;;;5056320;28;20267;-71
2023/01/06 04:03:38;;;;;;;1.40;1.30;;;;;;;;;;5028736;28;20260;-72
2023/01/06 04:06:03;;;;;;;0.55;0.55;;;;;;;;;;5031798;28;20037;-72
2023/01/06 04:08:31;;;;;;;0.43;0.43;;;;;;;;;;5014474;28;20025;-72
2023/01/06 04:10:57;;;;;;;0.57;0.57;;;;;;;;;;5032073;28;20450;-72
2023/01/06 04:13:22;;;;;;;0.10;0.10;;;;;;;;;;5030842;28;20025;-72
2023/01/06 04:15:48;;;;;;;0.20;0.20;;;;;;;;;;5030464;28;20032;-72
2023/01/06 04:18:13;;;;;;;0.10;0.10;;;;;;;;;;5030296;28;20030;-72
2023/01/06 04:20:41;;;;;;;0.10;0.10;;;;;;;;;;5030709;28;20400;-72
2023/01/06 04:23:16;;;;;;;0.30;0.30;;;;;;;;;;5030725;28;20052;-72
2023/01/06 04:25:43;;;;;;;0.95;0.95;;;;;;;;;;5030342;28;20033;-72
2023/01/06 04:28:12;;;;;;;0.10;0.10;;;;;;;;;;5031744;28;20116;-72
2023/01/06 04:30:38;;;;;;;0.20;0.20;;;;;;;;;;5031547;28;20478;-72
2023/01/06 04:33:03;;;;;;;0.63;0.63;;;;;;;;;;5029897;28;20029;-72
2023/01/06 04:35:29;;;;;;;0.17;0.17;;;;;;;;;;5030162;28;20050;-72
2023/01/06 04:37:54;;;;;;;3.03;2.75;;;;;;;;;;5032408;28;20159;-73
2023/01/06 04:40:20;;;;;;;0.55;0.55;;;;;;;;;;5051635;28;20037;-72
2023/01/06 04:43:03;;;;;;;0.10;0.10;;;;;;;;;;5051506;28;20090;-72
2023/01/06 04:45:29;;;;;;;0.10;0.10;;;;;;;;;;5051045;28;20032;-72
2023/01/06 04:47:54;;;;;;;0.80;0.80;;;;;;;;;;5033614;28;20021;-72
2023/01/06 04:50:20;;;;;;;0.10;0.10;;;;;;;;;;5033212;28;20477;-72
2023/01/06 04:52:45;;;;;;;0.10;0.10;;;;;;;;;;5050811;28;20040;-72
2023/01/06 04:55:11;;;;;;;0.20;0.20;;;;;;;;;;5033248;28;20025;-72
2023/01/06 04:57:37;;;;;;;0.10;0.10;;;;;;;;;;5050997;28;20025;-72
2023/01/06 05:00:03;;;;;;;0.32;0.32;;;;;;;;;;5050422;28;20021;-72
2023/01/06 05:02:28;;;;;;;0.10;0.10;;;;;;;;;;5030871;28;20056;-71
2023/01/06 05:04:54;;;;;;;1.48;1.38;;;;;;;;;;5030719;28;20053;-71
2023/01/06 05:07:19;;;;;;;0.10;0.10;;;;;;;;;;5031167;28;20075;-71
2023/01/06 05:09:45;;;;;;;0.50;0.50;;;;;;;;;;5012719;28;20021;-72
2023/01/06 05:12:10;;;;;;;0.30;0.30;;;;;;;;;;5030546;28;20104;-71
2023/01/06 05:14:36;;;;;;;0.10;0.10;;;;;;;;;;5031115;28;20031;-71
2023/01/06 05:17:01;;;;;;;0.25;0.25;;;;;;;;;;5030423;28;20021;-71
2023/01/06 05:19:27;;;;;;;0.35;0.35;;;;;;;;;;5013165;28;20052;-73
2023/01/06 05:21:52;;;;;;;0.10;0.10;;;;;;;;;;5030422;28;20025;-73
2023/01/06 05:24:17;;;;;;;0.10;0.10;;;;;;;;;;5030506;28;20091;-73
2023/01/06 05:26:43;;;;;;;0.10;0.10;;;;;;;;;;5030584;28;20052;-73
2023/01/06 05:29:12;;;;;;;0.30;0.30;;;;;;;;;;5013194;28;20029;-71
2023/01/06 05:31:37;;;;;;;0.10;0.10;;;;;;;;;;5029976;28;20025;-72
2023/01/06 05:34:02;;;;;;;0.88;0.88;;;;;;;;;;5012401;28;20075;-72
2023/01/06 05:36:28;;;;;;;1.60;1.50;;;;;;;;;;5030652;28;20026;-72
2023/01/06 05:38:53;;;;;;;0.10;0.10;;;;;;;;;;5012654;28;20055;-72
2023/01/06 05:41:19;;;;;;;0.20;0.20;;;;;;;;;;5030615;28;20026;-72
2023/01/06 05:43:44;;;;;;;0.15;0.15;;;;;;;;;;5029056;28;20025;-72
2023/01/06 05:46:10;;;;;;;0.10;0.10;;;;;;;;;;5029108;28;20049;-71
2023/01/06 05:48:37;;;;;;;0.10;0.10;;;;;;;;;;5012671;28;20029;-72
2023/01/06 05:51:03;;;;;;;1.00;0.98;;;;;;;;;;5012989;28;20556;-71
2023/01/06 05:53:32;;;;;;;0.20;0.20;;;;;;;;;;5036533;28;20029;-71
2023/01/06 05:55:58;;;;;;;2.90;2.72;;;;;;;;;;5029798;28;20021;-72
2023/01/06 05:58:24;;;;;;;0.47;0.47;;;;;;;;;;5030040;28;20056;-71
2023/01/06 06:00:49;;;;;;;0.10;0.10;;;;;;;;;;5029629;28;20103;-72
2023/01/06 06:03:14;;;;;;;0.22;0.22;;;;;;;;;;5012171;28;20150;-72
2023/01/06 06:05:40;;;;;;;0.52;0.52;;;;;;;;;;5012077;28;20419;-72
2023/01/06 06:08:05;;;;;;;0.10;0.10;;;;;;;;;;5029985;28;20029;-71
2023/01/06 06:10:31;;;;;;;0.17;0.17;;;;;;;;;;5029618;28;20031;-71
2023/01/06 06:12:56;;;;;;;0.10;0.10;;;;;;;;;;5028932;28;20021;-71
2023/01/06 06:15:22;;;;;;;0.10;0.10;;;;;;;;;;5029526;28;20072;-72
2023/01/06 06:17:47;;;;;;;0.10;0.10;;;;;;;;;;4994650;28;20021;-75
2023/01/06 06:20:12;;;;;;;0.10;0.10;;;;;;;;;;5037230;28;20032;-72
2023/01/06 06:22:38;;;;;;;0.20;0.20;;;;;;;;;;5044400;28;20025;-71
2023/01/06 06:25:03;;;;;;;0.40;0.40;;;;;;;;;;5029604;28;20025;-74
2023/01/06 06:27:29;;;;;;;0.10;0.10;;;;;;;;;;5028832;28;20053;-73
2023/01/06 06:29:54;;;;;;;0.75;0.75;;;;;;;;;;5029214;28;20036;-73
2023/01/06 06:32:20;;;;;;;0.10;0.10;;;;;;;;;;5029298;28;20090;-73
2023/01/06 06:34:45;;;;;;;0.28;0.28;;;;;;;;;;5029517;28;20014;-73
2023/01/06 06:37:10;;;;;;;0.30;0.30;;;;;;;;;;5029180;28;20412;-74
2023/01/06 06:39:36;;;;;;;0.15;0.15;;;;;;;;;;5029293;28;20049;-74
2023/01/06 06:42:01;;;;;;;0.20;0.20;;;;;;;;;;5028491;28;20072;-74
2023/01/06 06:44:27;;;;;;;0.10;0.10;;;;;;;;;;5029527;28;20057;-73
2023/01/06 06:46:52;;;;;;;0.28;0.28;;;;;;;;;;5010799;28;20144;-74
2023/01/06 06:49:17;;;;;;;0.63;0.63;;;;;;;;;;5011595;28;20129;-73
2023/01/06 06:51:46;;;;;;;0.20;0.20;;;;;;;;;;5028445;28;20117;-74
2023/01/06 06:54:12;;;;;;;0.10;0.10;;;;;;;;;;5029007;28;20465;-74
2023/01/06 06:56:37;;;;;;;0.30;0.30;;;;;;;;;;5032059;28;20021;-73
2023/01/06 06:59:02;;;;;;;0.10;0.10;;;;;;;;;;5015121;28;20025;-73
2023/01/06 07:01:30;;;;;;;0.20;0.20;;;;;;;;;;5032047;28;20029;-73
2023/01/06 07:03:55;;;;;;;0.10;0.10;;;;;;;;;;5032772;28;20056;-73
2023/01/06 07:06:22;;;;;;;0.68;0.68;;;;;;;;;;5033324;28;20029;-73
2023/01/06 07:08:47;;;;;;;0.40;0.40;;;;;;;;;;5014529;28;20480;-72
2023/01/06 07:11:13;;;;;;;0.20;0.20;;;;;;;;;;5031989;28;20021;-72
2023/01/06 07:13:39;;;;;;;9.77;8.50;;;;;;;;;;5032677;28;20088;-72
2023/01/06 07:16:04;;;;;;;2.88;1.65;;;;;;;;;;5032347;28;20402;-72
2023/01/06 07:18:30;;;;;;;0.10;0.10;;;;;;;;;;5033009;28;20021;-73
2023/01/06 07:20:55;;;;;;;0.52;0.52;;;;;;;;;;5033457;28;20032;-73
2023/01/06 07:23:22;;;;;;;0.20;0.20;;;;;;;;;;5031596;28;20041;-74
2023/01/06 07:25:54;;;;;;;0.10;0.10;;;;;;;;;;5031722;28;20060;-73
2023/01/06 07:28:19;;;;;;;0.13;0.13;;;;;;;;;;5032910;28;20032;-72
2023/01/06 07:30:45;;;;;;;0.10;0.10;;;;;;;;;;5032272;28;20372;-73
2023/01/06 07:33:10;;;;;;;0.38;0.38;;;;;;;;;;5032382;28;20440;-73
2023/01/06 07:35:36;;;;;;;3.85;1.10;;;;;;;;;;5032367;28;20033;-72
2023/01/06 07:38:02;;;;;;;0.55;0.55;;;;;;;;;;5046803;28;20057;-72
2023/01/06 07:40:27;;;;;;;0.20;0.20;;;;;;;;;;5031406;28;20025;-73
2023/01/06 07:42:53;;;;;;;9.50;5.63;;;;;;;;;;5032213;28;20066;-73
2023/01/06 07:45:18;;;;;;;2.08;1.98;;;;;;;;;;5031094;28;20030;-73
2023/01/06 07:47:44;;;;;;;0.60;0.60;;;;;;;;;;5014327;28;20026;-72
2023/01/06 07:50:09;;;;;;;1.95;1.08;;;;;;;;;;5031051;28;20025;-73
2023/01/06 07:52:35;;;;;;;1.50;0.73;;;;;;;;;;5031264;28;20075;-73
2023/01/06 07:55:00;;;;;;;1.35;1.25;;;;;;;;;;5031853;28;20021;-73
2023/01/06 07:57:26;;;;;;;0.55;0.52;;;;;;;;;;5030773;28;20338;-72
2023/01/06 07:59:52;;;;;;;0.63;0.63;;;;;;;;;;5029875;28;20464;-73
2023/01/06 08:02:17;;;;;;;1.05;1.05;;;;;;;;;;5031860;28;20171;-73
2023/01/06 08:04:43;;;;;;;3.55;3.28;;;;;;;;;;5032366;28;20021;-73
2023/01/06 08:07:08;;;;;;;0.20;0.20;;;;;;;;;;5031043;28;20045;-74
2023/01/06 08:09:34;;;;;;;0.20;0.20;;;;;;;;;;5031727;28;20025;-73
2023/01/06 08:11:59;;;;;;;0.40;0.40;;;;;;;;;;5031223;28;20034;-73
2023/01/06 08:14:25;;;;;;;2.55;2.40;;;;;;;;;;5031986;28;20467;-72
2023/01/06 08:16:50;;;;;;;0.80;0.77;;;;;;;;;;5031532;28;20031;-73
2023/01/06 08:19:16;;;;;;;2.13;0.68;;;;;;;;;;5032394;28;20017;-73
2023/01/06 08:21:41;;;;;;;0.10;0.10;;;;;;;;;;5013868;28;20128;-72
2023/01/06 08:24:07;;;;;;;0.10;0.10;;;;;;;;;;5031182;28;20021;-73
2023/01/06 08:26:32;;;;;;;0.10;0.10;;;;;;;;;;5031418;28;20029;-74
2023/01/06 08:28:58;;;;;;;12.38;2.22;;;;;;;;;;5031466;28;20028;-73
2023/01/06 08:31:23;;;;;;;0.50;0.50;;;;;;;;;;5031328;28;20112;-73
2023/01/06 08:33:50;;;;;;;7.40;5.05;;;;;;;;;;5031792;28;20021;-73
2023/01/06 08:36:16;;;;;;;3.38;2.75;;;;;;;;;;5013914;28;20109;-73
2023/01/06 08:38:42;;;;;;;0.22;0.22;;;;;;;;;;5013904;28;20046;-73
2023/01/06 08:41:08;;;;;;;2.00;1.80;;;;;;;;;;5014034;28;20116;-73
2023/01/06 08:43:33;;;;;;;0.10;0.10;;;;;;;;;;5031100;28;20025;-73
2023/01/06 08:46:00;;;;;;;0.35;0.35;;;;;;;;;;4996896;28;20076;-73
2023/01/06 08:48:26;;;;;;;1.42;1.27;;;;;;;;;;5013552;28;20090;-73
2023/01/06 08:50:51;;;;;;;0.68;0.68;;;;;;;;;;5030991;28;20029;-73
2023/01/06 08:53:17;;;;;;;0.10;0.10;;;;;;;;;;5007714;28;20342;-73
2023/01/06 08:55:42;;;;;;;0.63;0.63;;;;;;;;;;5030315;28;20118;-73
2023/01/06 08:58:08;;;;;;;0.35;0.35;;;;;;;;;;5030803;28;20018;-73
2023/01/06 09:00:35;;;;;;;0.20;0.20;;;;;;;;;;5030865;28;20053;-75
2023/01/06 09:03:00;;;;;;;1.75;1.42;;;;;;;;;;5031523;28;20037;-75
2023/01/06 09:05:25;;;;;;;0.40;0.40;;;;;;;;;;5031427;28;20036;-73
2023/01/06 09:07:51;;;;;;;1.33;1.23;;;;;;;;;;5013182;28;20030;-74
2023/01/06 09:10:17;;;;;;;0.10;0.10;;;;;;;;;;5031139;28;20029;-74
2023/01/06 09:12:43;;;;;;;8.38;2.95;;;;;;;;;;5030994;28;20031;-74
2023/01/06 09:15:08;;;;;;;0.22;0.22;;;;;;;;;;5030989;28;20113;-74
2023/01/06 09:17:34;;;;;;;0.10;0.10;;;;;;;;;;5031235;28;20467;-73
2023/01/06 09:19:59;;;;;;;0.20;0.20;;;;;;;;;;5030708;28;20540;-74
2023/01/06 09:22:25;;;;;;;1.17;1.08;;;;;;;;;;5030993;28;20228;-73
2023/01/06 09:24:50;;;;;;;0.20;0.20;;;;;;;;;;5030819;28;20013;-73
2023/01/06 09:27:16;;;;;;;0.10;0.10;;;;;;;;;;5013059;28;20373;-73
2023/01/06 09:29:41;;;;;;;0.10;0.10;;;;;;;;;;5030709;28;20060;-73
2023/01/06 09:32:07;;;;;;;0.10;0.10;;;;;;;;;;5030495;28;20037;-73
2023/01/06 09:34:33;;;;;;;0.10;0.10;;;;;;;;;;5030332;28;20013;-73
2023/01/06 09:36:58;;;;;;;1.75;1.65;;;;;;;;;;5030459;28;20029;-74
2023/01/06 09:39:24;;;;;;;0.10;0.10;;;;;;;;;;5030248;28;20052;-74
2023/01/06 09:41:58;;;;;;;0.10;0.10;;;;;;;;;;5028578;28;20197;-73
2023/01/06 09:44:31;;;;;;;0.10;0.10;;;;;;;;;;5030344;28;20165;-73
2023/01/06 09:46:57;;;;;;;0.10;0.10;;;;;;;;;;5017254;28;20478;-76
2023/01/06 09:49:49;;;;;;;0.10;0.10;;;;;;;;;;5010098;28;20038;-75
2023/01/06 09:52:33;;;;;;;0.10;0.10;;;;;;;;;;5001364;28;20045;-76
2023/01/06 09:55:19;;;;;;;1.55;1.38;;;;;;;;;;5029350;28;20026;-75
2023/01/06 09:57:47;;;;;;;0.52;0.52;;;;;;;;;;5028963;28;20041;-75
2023/01/06 10:00:26;;;;;;;7.47;1.17;;;;;;;;;;5011938;28;20122;-75
2023/01/06 10:02:51;;;;;;;2.10;1.27;;;;;;;;;;5029965;28;20095;-75
2023/01/06 10:05:18;;;;;;;1.70;1.60;;;;;;;;;;5029446;28;20017;-75
2023/01/06 10:07:52;;;;;;;0.55;0.55;;;;;;;;;;5029604;28;20029;-75
2023/01/06 10:10:27;;;;;;;0.60;0.60;;;;;;;;;;5010950;28;20033;-75
2023/01/06 10:12:52;;;;;;;0.10;0.10;;;;;;;;;;5029977;28;20337;-75
2023/01/06 10:15:36;;;;;;;0.20;0.20;;;;;;;;;;5029136;28;20071;-75
2023/01/06 10:18:20;;;;;;;2.47;2.30;;;;;;;;;;5011717;28;20631;-75
2023/01/06 10:20:51;;;;;;;2.35;2.25;;;;;;;;;;5030229;28;20037;-75
2023/01/06 10:23:24;;;;;;;0.10;0.10;;;;;;;;;;5029126;28;20460;-75
2023/01/06 10:25:53;;;;;;;0.32;0.32;;;;;;;;;;5028607;28;20040;-73
2023/01/06 10:28:20;;;;;;;1.10;1.00;;;;;;;;;;5029289;28;20030;-73
2023/01/06 10:30:50;;;;;;;1.15;0.82;;;;;;;;;;5029035;28;20083;-74
2023/01/06 10:33:23;;;;;;;0.40;0.40;;;;;;;;;;5011792;28;20033;-74
2023/01/06 10:35:49;;;;;;;0.43;0.43;;;;;;;;;;5008302;28;20041;-75
2023/01/06 10:38:15;;;;;;;0.60;0.60;;;;;;;;;;5020153;28;20124;-75
2023/01/06 10:40:41;;;;;;;0.20;0.20;;;;;;;;;;5041212;28;20071;-73
2023/01/06 10:43:11;;;;;;;0.22;0.22;;;;;;;;;;5034062;28;20057;-74
2023/01/06 10:45:36;;;;;;;1.40;0.98;;;;;;;;;;5011997;28;20029;-74
2023/01/06 10:48:03;;;;;;;0.32;0.32;;;;;;;;;;5046754;28;20032;-74
2023/01/06 10:50:28;;;;;;;21.90;9.18;;;;;;;;;;5048293;28;20025;-74
2023/01/06 10:52:54;;;;;;;0.57;0.50;;;;;;;;;;5048453;28;20021;-74
2023/01/06 10:55:39;;;;;;;0.10;0.10;;;;;;;;;;5048678;28;20478;-74
2023/01/06 10:58:11;;;;;;;3.25;1.27;;;;;;;;;;5048852;28;20480;-74
2023/01/06 11:00:36;;;;;;;0.20;0.20;;;;;;;;;;5049310;28;20083;-74
2023/01/06 11:03:03;;;;;;;0.93;0.93;;;;;;;;;;5049036;28;20407;-74
2023/01/06 11:05:30;;;;;;;0.30;0.30;;;;;;;;;;5037252;28;20025;-74
2023/01/06 11:08:11;;;;;;;0.45;0.45;;;;;;;;;;5030875;28;20028;-74
2023/01/06 11:10:43;;;;;;;0.10;0.10;;;;;;;;;;5027034;28;20026;-74
2023/01/06 11:13:35;;;;;;;0.10;0.10;;;;;;;;;;5026655;28;20034;-75
2023/01/06 11:16:01;;;;;;;0.25;0.25;;;;;;;;;;5025811;28;20075;-74
2023/01/06 11:18:28;;;;;;;0.10;0.10;;;;;;;;;;5028290;28;20037;-75
2023/01/06 11:21:00;;;;;;;0.25;0.25;;;;;;;;;;5011229;28;20025;-74
2023/01/06 11:23:27;;;;;;;0.10;0.10;;;;;;;;;;5045932;28;20024;-74
2023/01/06 11:26:03;;;;;;;0.38;0.38;;;;;;;;;;5048543;28;20017;-74
2023/01/06 11:28:29;;;;;;;0.65;0.65;;;;;;;;;;5048663;28;20027;-75
2023/01/06 11:31:00;;;;;;;1.08;0.85;;;;;;;;;;5049004;28;20017;-75
2023/01/06 11:33:26;;;;;;;0.45;0.43;;;;;;;;;;5048988;28;20471;-74
2023/01/06 11:35:52;;;;;;;0.10;0.10;;;;;;;;;;5048694;28;20040;-74
2023/01/06 11:38:18;;;;;;;1.95;1.85;;;;;;;;;;5048762;28;20476;-74
2023/01/06 11:40:48;;;;;;;2.75;2.38;;;;;;;;;;5049006;28;20021;-75
2023/01/06 11:43:22;;;;;;;0.50;0.50;;;;;;;;;;5051501;28;20036;-74
2023/01/06 11:45:47;;;;;;;0.20;0.20;;;;;;;;;;5052187;28;20027;-74
2023/01/06 11:48:12;;;;;;;0.20;0.20;;;;;;;;;;5052440;28;20029;-74
2023/01/06 11:50:38;;;;;;;0.75;0.75;;;;;;;;;;5052417;28;20465;-74
2023/01/06 11:53:13;;;;;;;0.40;0.40;;;;;;;;;;5052099;28;20033;-75
2023/01/06 11:55:39;;;;;;;0.40;0.40;;;;;;;;;;5034103;28;20024;-75
2023/01/06 11:58:10;;;;;;;0.17;0.17;;;;;;;;;;5051982;28;20090;-75
2023/01/06 12:00:36;;;;;;;0.35;0.35;;;;;;;;;;5017426;28;20850;-74
2023/01/06 12:03:11;;;;;;;0.20;0.20;;;;;;;;;;5051839;28;20478;-75
2023/01/06 12:05:37;;;;;;;0.20;0.20;;;;;;;;;;5050429;28;20021;-75
2023/01/06 12:08:22;;;;;;;1.00;1.00;;;;;;;;;;5034623;28;20029;-74
2023/01/06 12:10:51;;;;;;;1.10;1.10;;;;;;;;;;5033935;28;20029;-75
2023/01/06 12:13:17;;;;;;;;;;;;;;;;;;5034787;28;20094;-75
2023/01/06 12:15:44;;;;;;;0.10;0.10;;;;;;;;;;5051649;28;20322;-75
2023/01/06 12:18:13;;;;;;;0.20;0.20;;;;;;;;;;5051853;28;20256;-75
2023/01/06 12:20:40;;;;;;;0.20;0.20;;;;;;;;;;5052023;28;20111;-75
2023/01/06 12:23:19;;;;;;;0.20;0.20;;;;;;;;;;5051749;28;20101;-75
2023/01/06 12:25:46;;;;;;;0.77;0.77;;;;;;;;;;5051056;28;20112;-75
2023/01/06 12:28:17;;;;;;;0.52;0.52;;;;;;;;;;5050941;28;20020;-75
2023/01/06 12:30:56;;;;;;;0.68;0.68;;;;;;;;;;5051147;28;20043;-75
2023/01/06 12:33:21;;;;;;;6.20;3.05;;;;;;;;;;5051176;28;20032;-75
2023/01/06 12:35:48;;;;;;;0.60;0.60;;;;;;;;;;5050996;28;20032;-75
2023/01/06 12:38:32;;;;;;;0.30;0.30;;;;;;;;;;5014698;28;20049;-77
2023/01/06 12:41:02;;;;;;;0.35;0.35;;;;;;;;;;5051275;28;20124;-77
2023/01/06 12:43:29;;;;;;;0.20;0.20;;;;;;;;;;5051735;28;20487;-77
2023/01/06 12:45:58;;;;;;;0.20;0.20;;;;;;;;;;5051111;28;20021;-76
2023/01/06 12:48:35;;;;;;;0.30;0.30;;;;;;;;;;5051208;28;20063;-76
2023/01/06 12:51:14;;;;;;;0.20;0.20;;;;;;;;;;5051426;28;20090;-76
2023/01/06 12:53:42;;;;;;;0.20;0.20;;;;;;;;;;5050992;28;20029;-78
2023/01/06 12:56:17;;;;;;;0.20;0.20;;;;;;;;;;5050943;28;20453;-77
2023/01/06 12:58:49;;;;;;;0.20;0.20;;;;;;;;;;5050935;28;20411;-77
2023/01/06 13:01:33;;;;;;;0.38;0.38;;;;;;;;;;5050880;28;20025;-76
2023/01/06 13:04:16;;;;;;;0.20;0.20;;;;;;;;;;5050666;28;20108;-76
2023/01/06 13:06:41;;;;;;;0.30;0.30;;;;;;;;;;5051176;28;20499;-76
2023/01/06 13:09:19;;;;;;;1.85;1.75;;;;;;;;;;5051215;28;20107;-76
2023/01/06 13:11:56;;;;;;;0.38;0.38;;;;;;;;;;5050435;28;20552;-77
2023/01/06 13:14:30;;;;;;;0.32;0.32;;;;;;;;;;5050945;28;20469;-76
2023/01/06 13:16:59;;;;;;;0.40;0.40;;;;;;;;;;5050720;28;20120;-76
2023/01/06 13:19:43;;;;;;;0.20;0.20;;;;;;;;;;5050579;28;20025;-76
2023/01/06 13:22:11;;;;;;;0.10;0.10;;;;;;;;;;5051132;28;20020;-76
2023/01/06 13:24:55;;;;;;;0.20;0.20;;;;;;;;;;5050647;28;20059;-77
2023/01/06 13:27:36;;;;;;;0.10;0.10;;;;;;;;;;5050463;28;20017;-77
2023/01/06 13:30:13;;;;;;;0.20;0.20;;;;;;;;;;5050119;28;20025;-77
2023/01/06 13:32:58;;;;;;;0.10;0.10;;;;;;;;;;5050665;28;20056;-77
2023/01/06 13:35:29;;;;;;;0.20;0.20;;;;;;;;;;5032676;28;20032;-77
2023/01/06 13:37:54;;;;;;;0.20;0.20;;;;;;;;;;5049805;28;20052;-76
2023/01/06 13:40:25;;;;;;;0.13;0.13;;;;;;;;;;5050253;28;20030;-77
2023/01/06 13:42:54;;;;;;;0.15;0.15;;;;;;;;;;5031329;28;20021;-77
2023/01/06 13:45:22;;;;;;;0.63;0.63;;;;;;;;;;5049915;28;20021;-76
2023/01/06 13:47:48;;;;;;;0.30;0.30;;;;;;;;;;5037430;28;20037;-76
2023/01/06 13:50:15;;;;;;;0.20;0.20;;;;;;;;;;5047933;28;20487;-77
2023/01/06 13:52:41;;;;;;;0.40;0.40;;;;;;;;;;5029508;28;20029;-77
2023/01/06 13:55:18;;;;;;;0.20;0.20;;;;;;;;;;5030230;28;20613;-77
2023/01/06 13:57:44;;;;;;;0.30;0.30;;;;;;;;;;5029413;28;20069;-76
2023/01/06 14:00:09;;;;;;;1.27;1.27;;;;;;;;;;5029502;28;20056;-76
2023/01/06 14:02:37;;;;;;;0.10;0.10;;;;;;;;;;5030027;28;20037;-76
2023/01/06 14:05:27;;;;;;;0.20;0.20;;;;;;;;;;5028966;28;20021;-76
2023/01/06 14:08:00;;;;;;;0.47;0.47;;;;;;;;;;5018721;28;20050;-76
2023/01/06 14:10:31;;;;;;;13.02;4.88;;;;;;;;;;5009996;28;20369;-77
2023/01/06 14:12:57;;;;;;;4.28;3.83;;;;;;;;;;5029061;28;20040;-77
2023/01/06 14:15:30;;;;;;;0.20;0.20;;;;;;;;;;5029769;28;20019;-76
2023/01/06 14:17:56;;;;;;;0.60;0.60;;;;;;;;;;5029652;28;20034;-77
2023/01/06 14:20:29;;;;;;;0.38;0.38;;;;;;;;;;5009146;28;20037;-76
2023/01/06 14:23:17;;;;;;;0.32;0.32;;;;;;;;;;5009934;28;20026;-77
2023/01/06 14:25:48;;;;;;;0.25;0.25;;;;;;;;;;5004435;28;20536;-76
2023/01/06 14:28:19;;;;;;;0.13;0.13;;;;;;;;;;5010282;28;20108;-76
2023/01/06 14:30:46;;;;;;;0.20;0.20;;;;;;;;;;5015078;28;20068;-77
2023/01/06 14:33:26;;;;;;;0.10;0.10;;;;;;;;;;5029626;28;20029;-77
2023/01/06 14:36:00;;;;;;;0.28;0.28;;;;;;;;;;5028381;28;20025;-76
2023/01/06 14:38:56;;;;;;;0.10;0.10;;;;;;;;;;5027429;28;20354;-76
2023/01/06 14:41:25;;;;;;;0.15;0.15;;;;;;;;;;5014342;28;20053;-76
2023/01/06 14:43:57;;;;;;;3.53;3.33;;;;;;;;;;5027025;28;20388;-76
2023/01/06 14:46:31;;;;;;;0.88;0.88;;;;;;;;;;5031926;28;20745;-76
2023/01/06 14:48:58;;;;;;;0.10;0.10;;;;;;;;;;5031574;28;20025;-77
2023/01/06 14:51:24;;;;;;;0.20;0.20;;;;;;;;;;5038778;28;20028;-77
2023/01/06 14:54:10;;;;;;;0.10;0.10;;;;;;;;;;5048328;28;20029;-76
2023/01/06 14:56:36;;;;;;;0.10;0.10;;;;;;;;;;5010259;28;20042;-78